Time;durP1;ratioP1;P1;durP2;ratioP2;P2;SDS_P1;SDS_P2;PMS_P1;PMS_P2;Temp;Humidity;BMP_temperature;BMP_pressure;BME280_temperature;BME280_humidity;BME280_pressure;Samples;Min_cycle;Max_cycle;Signal;HPM_P1;HPM_P2
2023/08/26 00:01:51;;;;;;;5.85;3.50;;;27.40;64.70;;;;;;5136672;27;20483;-66
2023/08/26 00:04:17;;;;;;;7.30;3.72;;;27.30;64.70;;;;;;5136392;27;20019;-67
2023/08/26 00:06:42;;;;;;;7.68;3.03;;;27.30;64.70;;;;;;5136830;27;20019;-67
2023/08/26 00:09:08;;;;;;;4.88;3.20;;;27.30;65.00;;;;;;5136350;27;20019;-68
2023/08/26 00:11:34;;;;;;;5.55;3.38;;;27.30;65.00;;;;;;5136242;27;20462;-67
2023/08/26 00:13:59;;;;;;;4.65;3.60;;;27.30;65.00;;;;;;5136237;27;20539;-67
2023/08/26 00:16:26;;;;;;;5.50;3.30;;;27.30;65.10;;;;;;5136172;27;20466;-67
2023/08/26 00:18:52;;;;;;;5.63;3.45;;;27.20;65.50;;;;;;5136214;27;20111;-67
2023/08/26 00:21:21;;;;;;;4.30;3.42;;;27.20;65.80;;;;;;5136039;27;20115;-67
2023/08/26 00:23:47;;;;;;;5.35;2.90;;;27.20;65.70;;;;;;5136417;27;20379;-66
2023/08/26 00:26:13;;;;;;;9.45;4.15;;;27.20;65.70;;;;;;5135926;27;20025;-67
2023/08/26 00:28:39;;;;;;;7.72;3.72;;;27.10;66.30;;;;;;5136232;27;20110;-66
2023/08/26 00:31:04;;;;;;;5.43;3.40;;;27.10;66.20;;;;;;5135850;27;20034;-66
2023/08/26 00:33:30;;;;;;;5.50;3.35;;;27.10;66.10;;;;;;5135857;27;20243;-67
2023/08/26 00:35:56;;;;;;;5.18;3.58;;;27.10;66.40;;;;;;5135901;27;20024;-67
2023/08/26 00:38:22;;;;;;;5.05;3.47;;;27.10;66.50;;;;;;5135379;27;20478;-67
2023/08/26 00:40:47;;;;;;;7.28;3.85;;;27.10;66.90;;;;;;5136136;27;20039;-66
2023/08/26 00:43:13;;;;;;;6.95;3.60;;;27.00;66.80;;;;;;5135626;27;20034;-67
2023/08/26 00:45:46;;;;;;;7.03;3.63;;;27.00;66.90;;;;;;5136031;27;20025;-67
2023/08/26 00:48:12;;;;;;;7.25;4.03;;;27.00;67.00;;;;;;5135741;27;20027;-69
2023/08/26 00:50:42;;;;;;;6.15;3.30;;;27.00;67.20;;;;;;5135943;27;20047;-67
2023/08/26 00:53:09;;;;;;;4.97;3.40;;;26.90;67.50;;;;;;5135667;27;20482;-67
2023/08/26 00:55:37;;;;;;;5.68;3.50;;;26.90;67.40;;;;;;5135368;27;20027;-67
2023/08/26 00:58:05;;;;;;;8.75;4.00;;;26.90;67.20;;;;;;5135780;27;20047;-67
2023/08/26 01:00:33;;;;;;;7.13;4.03;;;26.90;67.60;;;;;;5135255;27;20403;-66
2023/08/26 01:02:59;;;;;;;7.13;4.10;;;26.90;67.90;;;;;;5117196;27;20517;-67
2023/08/26 01:05:25;;;;;;;5.18;3.47;;;26.80;67.70;;;;;;5116778;27;20063;-66
2023/08/26 01:07:51;;;;;;;8.32;3.90;;;26.80;67.60;;;;;;5135211;27;20118;-67
2023/08/26 01:10:18;;;;;;;8.10;3.90;;;26.80;67.60;;;;;;5135433;27;20114;-67
2023/08/26 01:12:59;;;;;;;6.65;3.88;;;26.80;68.30;;;;;;5135166;27;20023;-67
2023/08/26 01:15:28;;;;;;;8.25;3.90;;;26.80;68.10;;;;;;5135317;27;20027;-66
2023/08/26 01:17:56;;;;;;;6.13;3.60;;;26.80;68.00;;;;;;5135359;27;20072;-67
2023/08/26 01:20:24;;;;;;;5.05;3.80;;;26.80;67.90;;;;;;5135028;27;20031;-66
2023/08/26 01:22:51;;;;;;;5.57;3.60;;;26.80;68.00;;;;;;5135464;27;20046;-67
2023/08/26 01:25:17;;;;;;;6.30;3.55;;;26.80;68.00;;;;;;5134831;27;20023;-67
2023/08/26 01:27:43;;;;;;;7.25;3.70;;;26.80;68.40;;;;;;5135253;27;20019;-67
2023/08/26 01:30:12;;;;;;;8.75;3.60;;;26.80;68.30;;;;;;5135096;27;20110;-66
2023/08/26 01:32:45;;;;;;;6.13;4.63;;;26.80;68.30;;;;;;5134515;27;20023;-66
2023/08/26 01:35:16;;;;;;;8.40;4.00;;;26.70;68.10;;;;;;5135073;27;20034;-67
2023/08/26 01:37:43;;;;;;;3.65;3.00;;;26.70;68.30;;;;;;5135157;27;20026;-66
2023/08/26 01:40:11;;;;;;;6.63;3.47;;;26.70;68.20;;;;;;5134923;27;20042;-68
2023/08/26 01:42:41;;;;;;;7.10;3.88;;;26.60;68.50;;;;;;5134403;27;20027;-66
2023/08/26 01:45:07;;;;;;;4.43;3.40;;;26.60;68.80;;;;;;5134833;27;20038;-66
2023/08/26 01:47:32;;;;;;;6.78;3.53;;;26.60;68.90;;;;;;5134453;27;20027;-67
2023/08/26 01:49:58;;;;;;;4.97;3.42;;;26.60;68.90;;;;;;5134374;27;20054;-67
2023/08/26 01:52:24;;;;;;;6.85;3.40;;;26.60;69.10;;;;;;5134358;27;20030;-67
2023/08/26 01:54:49;;;;;;;6.82;3.72;;;26.60;69.30;;;;;;5132475;27;20023;-66
2023/08/26 01:57:16;;;;;;;6.20;3.80;;;26.50;69.20;;;;;;5114026;27;20464;-66
2023/08/26 01:59:42;;;;;;;4.95;3.10;;;26.50;69.30;;;;;;5113496;28;20081;-66
2023/08/26 02:02:08;;;;;;;7.82;3.47;;;26.50;69.60;;;;;;5114009;28;20043;-66
2023/08/26 02:04:33;;;;;;;5.85;3.58;;;26.50;69.60;;;;;;5128523;27;20065;-67
2023/08/26 02:06:59;;;;;;;6.28;3.50;;;26.50;69.90;;;;;;5134485;27;20382;-66
2023/08/26 02:09:25;;;;;;;7.47;4.13;;;26.40;69.90;;;;;;5133597;27;20031;-67
2023/08/26 02:11:50;;;;;;;6.70;3.97;;;26.40;70.10;;;;;;5134320;27;20027;-66
2023/08/26 02:14:16;;;;;;;5.97;3.70;;;26.30;70.20;;;;;;5134265;27;20031;-66
2023/08/26 02:16:41;;;;;;;5.85;3.60;;;26.30;70.20;;;;;;5133767;27;20065;-67
2023/08/26 02:19:07;;;;;;;5.28;3.53;;;26.30;70.60;;;;;;5133809;27;20115;-67
2023/08/26 02:21:33;;;;;;;5.32;3.60;;;26.30;70.80;;;;;;5133451;27;20031;-67
2023/08/26 02:23:58;;;;;;;7.05;3.60;;;26.20;71.30;;;;;;5133909;27;20023;-67
2023/08/26 02:26:24;;;;;;;4.70;3.92;;;26.20;71.70;;;;;;5133739;27;20023;-66
2023/08/26 02:28:49;;;;;;;5.47;3.92;;;26.20;71.80;;;;;;5134279;27;20031;-67
2023/08/26 02:31:15;;;;;;;5.38;4.00;;;26.20;72.60;;;;;;5133971;27;20042;-66
2023/08/26 02:33:40;;;;;;;7.10;3.85;;;26.10;72.10;;;;;;5133209;27;20059;-66
2023/08/26 02:36:06;;;;;;;7.53;4.32;;;26.20;72.50;;;;;;5134016;27;20027;-67
2023/08/26 02:38:32;;;;;;;6.13;4.10;;;26.10;72.80;;;;;;5133502;27;20023;-66
2023/08/26 02:40:58;;;;;;;6.10;3.92;;;26.10;73.20;;;;;;5133828;27;20467;-66
2023/08/26 02:43:23;;;;;;;5.57;3.83;;;26.10;73.70;;;;;;5133498;27;20027;-67
2023/08/26 02:45:53;;;;;;;9.82;4.22;;;26.10;73.70;;;;;;5133889;27;20023;-66
2023/08/26 02:48:20;;;;;;;4.93;3.90;;;26.00;74.20;;;;;;5133756;27;20027;-67
2023/08/26 02:50:46;;;;;;;6.90;4.35;;;26.00;74.40;;;;;;5133859;27;20411;-67
2023/08/26 02:53:12;;;;;;;10.02;4.35;;;26.00;75.00;;;;;;5133772;28;20027;-67
2023/08/26 02:55:37;;;;;;;5.28;3.53;;;26.00;75.30;;;;;;5133407;28;20055;-67
2023/08/26 02:58:03;;;;;;;6.38;3.97;;;26.00;75.50;;;;;;5133979;28;20023;-66
2023/08/26 03:00:29;;;;;;;5.47;3.75;;;26.00;75.80;;;;;;5132962;28;20418;-66
2023/08/26 03:02:54;;;;;;;7.30;4.40;;;26.00;75.80;;;;;;5133721;28;20059;-67
2023/08/26 03:05:20;;;;;;;7.30;4.18;;;26.00;76.00;;;;;;5133421;28;20027;-67
2023/08/26 03:07:46;;;;;;;6.07;3.55;;;25.90;75.90;;;;;;5133196;28;20113;-66
2023/08/26 03:10:11;;;;;;;7.25;4.25;;;26.00;75.70;;;;;;5115062;28;20066;-67
2023/08/26 03:12:37;;;;;;;7.45;4.25;;;25.90;75.50;;;;;;5133215;28;20126;-67
2023/08/26 03:15:03;;;;;;;5.43;4.20;;;25.90;75.80;;;;;;5133794;28;20027;-67
2023/08/26 03:17:28;;;;;;;6.78;4.30;;;25.90;75.90;;;;;;5135283;27;20020;-67
2023/08/26 03:19:54;;;;;;;8.77;4.35;;;26.00;75.90;;;;;;5137507;27;20058;-66
2023/08/26 03:22:19;;;;;;;6.20;3.97;;;26.00;76.00;;;;;;5137744;27;20059;-66
2023/08/26 03:24:45;;;;;;;6.65;4.20;;;25.90;75.90;;;;;;5137205;27;20370;-66
2023/08/26 03:27:10;;;;;;;7.43;3.95;;;25.90;75.70;;;;;;5137550;27;20035;-67
2023/08/26 03:29:36;;;;;;;4.18;3.38;;;25.90;75.70;;;;;;5136926;27;20455;-67
2023/08/26 03:32:02;;;;;;;8.02;3.88;;;25.90;75.80;;;;;;5137500;27;20411;-67
2023/08/26 03:34:27;;;;;;;4.53;3.80;;;26.00;75.90;;;;;;5136743;27;20027;-67
2023/08/26 03:36:53;;;;;;;7.97;4.10;;;26.00;75.90;;;;;;5137597;27;20451;-67
2023/08/26 03:39:18;;;;;;;9.60;4.45;;;26.00;75.70;;;;;;5137401;27;20464;-67
2023/08/26 03:41:44;;;;;;;6.55;4.10;;;26.00;75.60;;;;;;5137264;27;20443;-67
2023/08/26 03:44:10;;;;;;;9.00;5.03;;;26.00;75.80;;;;;;5137323;27;20536;-67
2023/08/26 03:46:35;;;;;;;7.80;3.78;;;26.00;75.80;;;;;;5136811;27;20024;-66
2023/08/26 03:49:02;;;;;;;6.20;4.18;;;26.00;76.00;;;;;;5136912;27;20098;-67
2023/08/26 03:51:27;;;;;;;6.15;3.90;;;26.00;76.20;;;;;;5136756;27;20039;-68
2023/08/26 03:53:53;;;;;;;6.55;4.53;;;25.90;76.50;;;;;;5137072;27;20435;-68
2023/08/26 03:56:18;;;;;;;5.72;3.80;;;25.90;76.50;;;;;;5137001;27;20019;-67
2023/08/26 03:58:44;;;;;;;7.55;4.05;;;25.90;76.80;;;;;;5136264;27;20031;-66
2023/08/26 04:01:10;;;;;;;6.25;4.00;;;25.90;76.90;;;;;;5136757;27;20049;-66
2023/08/26 04:03:35;;;;;;;8.93;4.63;;;25.90;77.10;;;;;;5133048;27;20109;-68
2023/08/26 04:06:03;;;;;;;6.72;3.90;;;25.80;77.00;;;;;;5136413;27;20504;-68
2023/08/26 04:08:33;;;;;;;6.82;4.53;;;25.80;77.30;;;;;;5136109;27;20027;-68
2023/08/26 04:10:59;;;;;;;5.80;4.20;;;25.80;77.60;;;;;;5136462;27;20042;-67
2023/08/26 04:13:26;;;;;;;8.82;4.30;;;25.80;77.70;;;;;;5136708;27;20031;-67
2023/08/26 04:15:53;;;;;;;9.07;4.30;;;25.80;77.60;;;;;;5136261;27;20047;-68
2023/08/26 04:18:20;;;;;;;9.57;4.70;;;25.80;78.00;;;;;;5136527;27;20537;-67
2023/08/26 04:20:46;;;;;;;6.90;4.90;;;25.80;78.20;;;;;;5136127;27;20050;-67
2023/08/26 04:23:11;;;;;;;8.15;4.50;;;25.70;78.40;;;;;;5136557;27;20480;-67
2023/08/26 04:25:38;;;;;;;7.75;5.22;;;25.70;78.60;;;;;;5136054;27;20030;-67
2023/08/26 04:28:04;;;;;;;8.30;4.32;;;25.70;78.80;;;;;;5135832;27;20059;-66
2023/08/26 04:30:30;;;;;;;5.88;4.22;;;25.70;79.40;;;;;;5135942;27;20111;-68
2023/08/26 04:32:56;;;;;;;9.85;4.47;;;25.70;80.20;;;;;;5136364;27;20523;-66
2023/08/26 04:35:22;;;;;;;9.25;4.28;;;25.70;80.10;;;;;;5136257;27;20023;-67
2023/08/26 04:37:47;;;;;;;8.02;4.55;;;25.70;80.30;;;;;;5135568;27;20102;-67
2023/08/26 04:40:13;;;;;;;4.95;4.18;;;25.70;81.10;;;;;;5136564;27;20092;-67
2023/08/26 04:42:42;;;;;;;9.05;4.38;;;25.70;81.10;;;;;;5136022;27;20033;-67
2023/08/26 04:45:09;;;;;;;7.25;4.20;;;25.80;81.10;;;;;;5117661;27;20421;-66
2023/08/26 04:47:36;;;;;;;9.90;4.32;;;25.80;80.90;;;;;;5135645;27;20077;-66
2023/08/26 04:50:03;;;;;;;5.90;3.85;;;25.80;81.30;;;;;;5135432;27;20039;-66
2023/08/26 04:52:29;;;;;;;6.30;3.80;;;25.80;81.30;;;;;;5117764;27;20027;-67
2023/08/26 04:54:55;;;;;;;7.57;4.43;;;25.80;81.50;;;;;;5135639;27;20023;-67
2023/08/26 04:57:20;;;;;;;7.15;4.00;;;25.80;81.30;;;;;;5135447;27;20023;-67
2023/08/26 04:59:46;;;;;;;6.57;3.97;;;25.80;81.20;;;;;;5135295;27;20112;-67
2023/08/26 05:02:12;;;;;;;4.97;3.53;;;25.90;80.60;;;;;;5135695;27;20019;-67
2023/08/26 05:04:37;;;;;;;7.65;3.78;;;25.90;79.60;;;;;;5135064;27;20030;-67
2023/08/26 05:07:03;;;;;;;7.18;3.97;;;25.90;79.80;;;;;;5135580;27;20023;-67
2023/08/26 05:09:30;;;;;;;5.47;4.05;;;25.80;79.70;;;;;;5135772;27;20042;-67
2023/08/26 05:11:57;;;;;;;7.72;4.13;;;26.00;80.10;;;;;;5135505;27;20027;-67
2023/08/26 05:14:23;;;;;;;6.68;4.38;;;26.00;79.90;;;;;;5135544;27;20080;-68
2023/08/26 05:16:49;;;;;;;9.65;4.75;;;26.10;80.20;;;;;;5135330;27;20106;-67
2023/08/26 05:19:14;;;;;;;8.25;4.78;;;26.20;80.20;;;;;;5135380;27;20062;-68
2023/08/26 05:21:40;;;;;;;5.05;4.07;;;26.30;80.00;;;;;;5135027;27;20042;-67
2023/08/26 05:24:06;;;;;;;9.50;4.50;;;26.30;79.80;;;;;;5135057;27;20523;-67
2023/08/26 05:26:32;;;;;;;7.18;4.45;;;26.40;79.50;;;;;;5135339;27;20027;-68
2023/08/26 05:28:58;;;;;;;5.90;4.07;;;26.40;79.80;;;;;;5135218;27;20019;-67
2023/08/26 05:31:24;;;;;;;10.27;4.35;;;26.30;80.20;;;;;;5135089;27;20459;-67
2023/08/26 05:33:50;;;;;;;6.03;3.75;;;26.40;80.30;;;;;;5134641;27;20061;-68
2023/08/26 05:36:15;;;;;;;5.22;4.10;;;26.40;79.70;;;;;;5135088;27;20030;-67
2023/08/26 05:38:41;;;;;;;6.13;3.70;;;26.50;79.90;;;;;;5134118;27;20156;-68
2023/08/26 05:41:07;;;;;;;5.43;3.35;;;26.50;79.40;;;;;;5134323;27;20034;-67
2023/08/26 05:43:32;;;;;;;6.18;3.75;;;26.50;78.60;;;;;;5135221;27;20100;-68
2023/08/26 05:45:58;;;;;;;6.47;3.42;;;26.50;78.40;;;;;;5134474;27;20054;-68
2023/08/26 05:48:23;;;;;;;7.90;3.70;;;26.50;78.50;;;;;;5134725;27;20375;-67
2023/08/26 05:50:49;;;;;;;7.20;3.67;;;26.50;78.70;;;;;;5134034;27;20047;-68
2023/08/26 05:53:15;;;;;;;5.35;3.50;;;26.50;79.30;;;;;;5134446;27;20023;-67
2023/08/26 05:55:41;;;;;;;6.55;3.35;;;26.60;79.20;;;;;;5132899;27;20110;-68
2023/08/26 05:58:07;;;;;;;4.80;3.65;;;26.60;79.10;;;;;;5116095;27;20464;-67
2023/08/26 06:00:33;;;;;;;6.90;3.40;;;26.60;78.70;;;;;;5113986;28;20076;-66
2023/08/26 06:02:59;;;;;;;4.28;3.20;;;26.50;77.70;;;;;;5113790;28;20081;-67
2023/08/26 06:05:25;;;;;;;7.13;3.60;;;26.60;77.50;;;;;;5113955;28;20028;-66
2023/08/26 06:07:51;;;;;;;8.98;3.63;;;26.60;77.70;;;;;;5129176;27;20512;-68
2023/08/26 06:10:17;;;;;;;6.68;3.40;;;26.70;77.30;;;;;;5134259;27;20066;-68
2023/08/26 06:12:43;;;;;;;3.72;3.03;;;26.80;76.60;;;;;;5133603;27;20364;-68
2023/08/26 06:15:09;;;;;;;4.68;2.90;;;26.90;76.30;;;;;;5134309;27;20448;-68
2023/08/26 06:17:35;;;;;;;5.32;3.40;;;27.10;76.10;;;;;;5134341;27;20038;-68
2023/08/26 06:20:03;;;;;;;7.82;3.53;;;27.20;75.20;;;;;;5134251;27;20031;-67
2023/08/26 06:22:29;;;;;;;7.07;3.97;;;27.20;74.90;;;;;;5134112;27;20031;-67
2023/08/26 06:24:55;;;;;;;7.75;3.35;;;27.30;74.10;;;;;;5133772;27;20026;-68
2023/08/26 06:27:23;;;;;;;5.53;3.63;;;27.30;74.00;;;;;;5134221;27;20042;-67
2023/08/26 06:29:53;;;;;;;7.63;4.03;;;27.20;75.00;;;;;;5133645;27;20034;-67
2023/08/26 06:32:19;;;;;;;6.47;3.85;;;27.20;75.40;;;;;;5115668;27;20034;-67
2023/08/26 06:34:44;;;;;;;7.05;3.60;;;27.30;74.70;;;;;;5133267;27;20392;-67
2023/08/26 06:37:10;;;;;;;6.38;3.63;;;27.40;74.10;;;;;;5133945;27;20034;-67
2023/08/26 06:39:35;;;;;;;8.50;3.88;;;27.50;74.60;;;;;;5133881;27;20456;-67
2023/08/26 06:42:01;;;;;;;6.30;3.53;;;27.70;74.10;;;;;;5133296;27;20088;-67
2023/08/26 06:44:27;;;;;;;4.82;3.35;;;27.90;73.60;;;;;;5133804;27;20066;-67
2023/08/26 06:46:52;;;;;;;5.00;3.60;;;28.20;71.60;;;;;;5115071;27;20037;-67
2023/08/26 06:49:18;;;;;;;5.65;3.30;;;28.40;70.70;;;;;;5133717;27;20044;-67
2023/08/26 06:51:44;;;;;;;4.72;3.20;;;28.70;69.60;;;;;;5133075;27;20038;-67
2023/08/26 06:54:09;;;;;;;10.50;3.97;;;29.00;69.90;;;;;;5133613;28;20031;-67
2023/08/26 06:56:35;;;;;;;9.48;3.55;;;29.40;68.50;;;;;;5133735;28;20034;-67
2023/08/26 06:59:01;;;;;;;7.55;3.47;;;29.90;68.60;;;;;;5133243;28;20375;-66
2023/08/26 07:01:27;;;;;;;4.63;3.05;;;30.30;65.50;;;;;;5133765;28;20459;-68
2023/08/26 07:03:53;;;;;;;7.20;3.00;;;30.80;63.30;;;;;;5133205;28;20023;-67
2023/08/26 07:06:18;;;;;;;7.32;3.03;;;31.30;61.40;;;;;;5133553;28;20023;-67
2023/08/26 07:08:44;;;;;;;4.93;3.25;;;31.70;60.50;;;;;;5132946;28;20479;-67
2023/08/26 07:11:10;;;;;;;5.53;2.92;;;32.30;58.90;;;;;;5133450;28;20039;-67
2023/08/26 07:13:35;;;;;;;6.68;2.85;;;32.90;57.00;;;;;;5133395;28;20024;-67
2023/08/26 07:16:01;;;;;;;4.15;2.70;;;33.30;55.30;;;;;;5133193;28;20019;-67
2023/08/26 07:18:26;;;;;;;8.02;2.70;;;33.90;53.90;;;;;;5133445;28;20028;-67
2023/08/26 07:20:52;;;;;;;4.13;2.78;;;34.10;53.80;;;;;;5132852;28;20123;-67
2023/08/26 07:23:18;;;;;;;5.88;2.70;;;33.90;52.70;;;;;;5133851;28;20031;-67
2023/08/26 07:25:43;;;;;;;5.13;2.88;;;34.20;53.70;;;;;;5133102;28;20086;-68
2023/08/26 07:28:09;;;;;;;7.70;2.78;;;34.80;53.00;;;;;;5133573;28;20352;-68
2023/08/26 07:30:34;;;;;;;6.18;3.50;;;34.90;51.40;;;;;;5133359;28;20031;-67
2023/08/26 07:33:00;;;;;;;4.20;2.95;;;34.60;50.90;;;;;;5132947;28;20475;-67
2023/08/26 07:35:26;;;;;;;5.00;2.90;;;34.40;51.40;;;;;;5133381;28;20023;-67
2023/08/26 07:37:53;;;;;;;4.22;2.75;;;34.40;52.10;;;;;;5132661;28;20027;-67
2023/08/26 07:40:19;;;;;;;7.93;3.15;;;34.80;51.70;;;;;;5133213;28;20387;-67
2023/08/26 07:42:44;;;;;;;4.75;2.95;;;35.00;51.00;;;;;;5132567;28;20383;-68
2023/08/26 07:45:11;;;;;;;5.13;2.90;;;35.00;50.10;;;;;;5132912;28;20080;-68
2023/08/26 07:47:39;;;;;;;5.57;3.30;;;34.80;50.50;;;;;;5132495;28;20364;-67
2023/08/26 07:50:05;;;;;;;5.88;3.80;;;34.80;51.00;;;;;;5132069;28;20554;-68
2023/08/26 07:52:31;;;;;;;8.68;3.20;;;35.10;50.90;;;;;;5133107;28;20028;-67
2023/08/26 07:54:56;;;;;;;7.72;3.30;;;35.50;50.40;;;;;;5115314;28;20026;-68
2023/08/26 07:57:22;;;;;;;6.53;3.08;;;36.10;48.40;;;;;;5112427;28;20027;-67
2023/08/26 07:59:47;;;;;;;8.73;3.38;;;35.80;47.80;;;;;;5112144;28;20028;-68
2023/08/26 08:02:13;;;;;;;8.27;3.40;;;34.90;49.80;;;;;;5112478;28;20111;-67
2023/08/26 08:04:39;;;;;;;5.15;3.28;;;34.30;51.50;;;;;;5116194;28;20024;-67
2023/08/26 08:07:04;;;;;;;5.45;3.03;;;33.70;52.90;;;;;;5115249;28;20404;-67
2023/08/26 08:09:30;;;;;;;7.45;2.95;;;32.80;54.00;;;;;;5115907;28;20373;-67
2023/08/26 08:11:56;;;;;;;4.60;3.45;;;32.10;56.30;;;;;;5124846;27;20375;-67
2023/08/26 08:14:21;;;;;;;6.03;3.38;;;31.40;58.10;;;;;;5136379;27;20080;-68
2023/08/26 08:16:47;;;;;;;4.82;3.47;;;30.90;60.20;;;;;;5136176;27;20030;-68
2023/08/26 08:19:12;;;;;;;6.88;3.53;;;30.50;62.00;;;;;;5136618;27;20066;-67
2023/08/26 08:21:38;;;;;;;6.03;3.47;;;29.80;63.60;;;;;;5136417;27;20028;-67
2023/08/26 08:24:04;;;;;;;5.18;3.50;;;29.30;65.60;;;;;;5135894;27;20027;-67
2023/08/26 08:26:32;;;;;;;4.25;3.47;;;28.90;67.70;;;;;;5136160;27;20383;-67
2023/08/26 08:28:58;;;;;;;4.70;3.65;;;28.50;69.70;;;;;;5135666;27;20137;-67
2023/08/26 08:31:24;;;;;;;6.15;4.00;;;28.30;70.90;;;;;;5136100;27;20118;-67
2023/08/26 08:33:49;;;;;;;7.97;3.78;;;28.20;72.00;;;;;;5135743;27;20469;-66
2023/08/26 08:36:15;;;;;;;6.97;3.72;;;28.10;71.70;;;;;;5135725;27;20019;-67
2023/08/26 08:38:40;;;;;;;6.32;3.80;;;28.00;72.10;;;;;;5135848;27;20608;-67
2023/08/26 08:41:06;;;;;;;5.63;3.65;;;27.90;72.50;;;;;;5135208;27;20038;-66
2023/08/26 08:43:37;;;;;;;5.78;3.67;;;27.80;72.80;;;;;;5135908;27;20074;-67
2023/08/26 08:46:03;;;;;;;7.75;3.80;;;27.70;73.10;;;;;;5135487;27;20102;-68
2023/08/26 08:48:28;;;;;;;10.05;3.50;;;27.60;72.60;;;;;;5135814;27;20029;-68
2023/08/26 08:50:56;;;;;;;4.07;3.47;;;27.50;72.00;;;;;;5135546;27;20051;-68
2023/08/26 08:53:28;;;;;;;3.95;3.47;;;27.50;72.40;;;;;;5135796;27;20027;-68
2023/08/26 08:55:54;;;;;;;5.55;3.67;;;27.50;72.80;;;;;;5135305;27;20076;-68
2023/08/26 08:58:21;;;;;;;5.30;3.25;;;27.60;73.00;;;;;;5135338;27;20027;-67
2023/08/26 09:00:47;;;;;;;6.60;3.58;;;27.50;73.50;;;;;;5135626;27;20473;-67
2023/08/26 09:03:14;;;;;;;5.70;3.60;;;27.50;73.30;;;;;;5135507;27;20023;-66
2023/08/26 09:05:40;;;;;;;7.15;3.85;;;27.30;73.40;;;;;;5135486;27;20023;-66
2023/08/26 09:08:09;;;;;;;5.57;3.40;;;27.20;74.70;;;;;;5135000;27;20324;-67
2023/08/26 09:10:35;;;;;;;4.88;3.53;;;27.20;75.00;;;;;;5135329;27;20046;-67
2023/08/26 09:13:03;;;;;;;6.22;3.75;;;27.30;75.20;;;;;;5134880;27;20031;-67
2023/08/26 09:15:28;;;;;;;3.95;3.50;;;27.40;74.40;;;;;;5135304;27;20122;-67
2023/08/26 09:18:00;;;;;;;9.07;3.55;;;27.30;72.70;;;;;;5134669;27;20034;-66
2023/08/26 09:20:28;;;;;;;4.78;3.20;;;27.30;73.10;;;;;;5135208;27;20038;-68
2023/08/26 09:23:03;;;;;;;4.45;3.50;;;27.20;72.90;;;;;;5134890;27;20430;-68
2023/08/26 09:25:31;;;;;;;4.18;2.85;;;27.30;73.40;;;;;;5135223;27;20023;-67
2023/08/26 09:27:58;;;;;;;4.15;3.00;;;27.50;73.70;;;;;;5134694;27;20023;-67
2023/08/26 09:30:23;;;;;;;4.22;3.30;;;27.80;73.40;;;;;;5135250;27;20031;-68
2023/08/26 09:32:49;;;;;;;6.45;3.15;;;28.00;70.90;;;;;;5134999;27;20023;-67
2023/08/26 09:35:17;;;;;;;4.15;3.10;;;28.10;69.90;;;;;;5134917;27;20076;-67
2023/08/26 09:37:45;;;;;;;7.43;3.60;;;28.10;69.10;;;;;;5134920;27;20034;-66
2023/08/26 09:40:15;;;;;;;4.43;2.97;;;28.30;69.60;;;;;;5134372;27;20113;-68
2023/08/26 09:42:41;;;;;;;9.75;3.13;;;28.30;69.60;;;;;;5134560;27;20031;-68
2023/08/26 09:45:13;;;;;;;9.05;3.30;;;28.50;69.00;;;;;;5134473;27;20031;-68
2023/08/26 09:47:39;;;;;;;4.25;3.08;;;28.60;68.20;;;;;;5133936;27;20520;-68
2023/08/26 09:50:06;;;;;;;4.53;3.30;;;28.60;67.90;;;;;;5134005;27;20043;-67
2023/08/26 09:52:46;;;;;;;5.30;2.97;;;28.60;67.40;;;;;;5134579;27;20486;-67
2023/08/26 09:55:12;;;;;;;5.80;2.87;;;28.70;68.00;;;;;;5130641;27;20035;-68
2023/08/26 09:57:39;;;;;;;5.95;2.88;;;28.70;66.20;;;;;;5134587;27;20115;-67
2023/08/26 10:00:08;;;;;;;6.55;2.88;;;28.80;66.40;;;;;;5134092;27;20027;-67
2023/08/26 10:02:37;;;;;;;6.47;2.67;;;29.00;65.50;;;;;;5134282;27;20068;-67
2023/08/26 10:05:09;;;;;;;4.63;2.50;;;29.20;66.30;;;;;;5134029;27;20016;-67
2023/08/26 10:07:36;;;;;;;2.83;2.45;;;29.50;64.70;;;;;;5134401;27;20023;-67
2023/08/26 10:10:13;;;;;;;4.78;3.00;;;29.60;64.20;;;;;;5133826;27;20035;-67
2023/08/26 10:12:41;;;;;;;4.88;3.00;;;29.70;62.10;;;;;;5134161;27;20023;-67
2023/08/26 10:15:12;;;;;;;3.38;2.60;;;29.80;61.20;;;;;;5134074;27;20451;-67
2023/08/26 10:17:43;;;;;;;7.28;2.70;;;29.70;61.40;;;;;;5134000;27;20027;-67
2023/08/26 10:20:09;;;;;;;5.05;2.45;;;29.80;60.40;;;;;;5133205;27;20032;-67
2023/08/26 10:22:37;;;;;;;2.70;2.38;;;29.80;59.10;;;;;;5133748;27;20027;-67
2023/08/26 10:25:05;;;;;;;5.70;2.60;;;29.70;58.90;;;;;;5133238;27;20023;-67
2023/08/26 10:27:31;;;;;;;4.28;2.38;;;29.70;58.20;;;;;;5133829;27;20536;-67
2023/08/26 10:29:59;;;;;;;3.30;2.40;;;29.60;58.00;;;;;;5133470;27;20070;-67
2023/08/26 10:32:27;;;;;;;3.05;2.10;;;29.80;56.90;;;;;;5133935;27;20114;-67
2023/08/26 10:34:55;;;;;;;3.55;2.47;;;29.90;56.00;;;;;;5115557;28;20463;-67
2023/08/26 10:37:28;;;;;;;3.65;2.70;;;30.00;55.30;;;;;;5133835;27;20035;-67
2023/08/26 10:39:55;;;;;;;2.97;2.00;;;30.20;55.00;;;;;;5133927;27;20076;-67
2023/08/26 10:42:23;;;;;;;2.95;2.20;;;30.30;55.00;;;;;;5133839;27;20023;-67
2023/08/26 10:44:55;;;;;;;2.70;2.30;;;30.50;55.60;;;;;;5133740;27;20031;-67
2023/08/26 10:47:38;;;;;;;3.90;1.95;;;30.50;54.50;;;;;;5133788;27;20524;-66
2023/08/26 10:50:16;;;;;;;3.83;2.15;;;30.50;52.50;;;;;;5133192;27;20062;-66
2023/08/26 10:52:42;;;;;;;3.17;2.13;;;30.60;53.00;;;;;;5133291;27;20023;-67
2023/08/26 10:55:22;;;;;;;5.75;2.45;;;30.70;52.80;;;;;;5115096;28;20027;-67
2023/08/26 10:58:06;;;;;;;6.78;2.65;;;30.70;53.10;;;;;;5133728;28;20020;-67
2023/08/26 11:00:32;;;;;;;5.70;2.70;;;30.80;53.70;;;;;;5133525;28;20486;-66
2023/08/26 11:02:59;;;;;;;5.60;2.42;;;30.90;53.90;;;;;;5133290;28;20356;-67
2023/08/26 11:05:25;;;;;;;2.67;2.03;;;30.80;53.70;;;;;;5133678;28;20020;-66
2023/08/26 11:07:51;;;;;;;4.90;2.38;;;30.90;53.40;;;;;;5133338;28;20028;-67
2023/08/26 11:10:31;;;;;;;5.65;1.98;;;30.90;53.30;;;;;;5133065;28;20039;-67
2023/08/26 11:12:57;;;;;;;2.75;2.08;;;31.00;53.70;;;;;;5133434;28;20083;-67
2023/08/26 11:15:22;;;;;;;6.65;2.45;;;31.10;54.40;;;;;;5133544;28;20023;-67
2023/08/26 11:17:49;;;;;;;3.97;2.17;;;31.20;53.80;;;;;;5133520;28;20031;-67
2023/08/26 11:20:16;;;;;;;5.80;2.88;;;31.20;53.60;;;;;;5133028;28;20028;-67
2023/08/26 11:22:43;;;;;;;4.55;2.55;;;31.10;53.30;;;;;;5133421;28;20023;-66
2023/08/26 11:25:13;;;;;;;3.53;2.58;;;31.10;53.60;;;;;;5132733;28;20027;-67
2023/08/26 11:27:38;;;;;;;6.18;2.20;;;31.20;53.70;;;;;;5133456;28;20019;-67
2023/08/26 11:30:08;;;;;;;4.57;2.28;;;31.10;53.50;;;;;;5132826;28;20043;-66
2023/08/26 11:32:38;;;;;;;5.70;2.55;;;31.20;53.70;;;;;;5133352;28;20026;-66
2023/08/26 11:35:05;;;;;;;4.90;2.40;;;31.10;54.50;;;;;;5132694;28;20467;-67
2023/08/26 11:37:44;;;;;;;7.00;2.25;;;31.20;54.60;;;;;;5133953;27;20057;-66
2023/08/26 11:40:10;;;;;;;2.30;2.10;;;31.30;54.10;;;;;;5136244;27;20027;-67
2023/08/26 11:42:36;;;;;;;5.68;2.45;;;31.40;54.20;;;;;;5137212;27;20030;-67
2023/08/26 11:45:09;;;;;;;4.88;2.25;;;31.40;53.90;;;;;;5136659;27;20033;-67
2023/08/26 11:47:35;;;;;;;3.70;2.20;;;31.40;54.10;;;;;;5133382;27;20023;-66
2023/08/26 11:50:01;;;;;;;5.10;2.63;;;31.40;54.30;;;;;;5136487;27;20047;-67
2023/08/26 11:52:36;;;;;;;8.02;2.10;;;31.40;54.10;;;;;;5137014;27;20019;-67
2023/08/26 11:55:03;;;;;;;4.43;2.45;;;31.40;54.60;;;;;;5136522;27;20049;-67
2023/08/26 11:57:35;;;;;;;3.83;2.85;;;31.30;54.60;;;;;;5136655;27;20080;-67
2023/08/26 12:00:10;;;;;;;7.18;2.25;;;31.40;54.80;;;;;;5136535;27;20085;-69
2023/08/26 12:02:36;;;;;;;4.40;2.45;;;31.50;55.20;;;;;;5136493;27;20024;-66
2023/08/26 12:05:02;;;;;;;7.18;2.30;;;31.60;55.20;;;;;;5136233;27;20421;-66
2023/08/26 12:07:29;;;;;;;4.22;2.40;;;31.70;55.40;;;;;;5136564;27;20084;-67
2023/08/26 12:09:56;;;;;;;5.75;2.55;;;31.90;53.80;;;;;;5136337;27;20030;-67
2023/08/26 12:12:23;;;;;;;3.25;2.30;;;31.90;53.60;;;;;;5136094;27;20031;-66
2023/08/26 12:14:49;;;;;;;4.18;2.38;;;31.70;54.00;;;;;;5108320;27;20023;-67
2023/08/26 12:17:16;;;;;;;5.30;2.30;;;31.70;54.20;;;;;;5128161;27;20458;-68
2023/08/26 12:19:42;;;;;;;4.75;2.58;;;31.70;54.50;;;;;;5135875;27;20493;-67
2023/08/26 12:22:11;;;;;;;4.38;2.30;;;31.70;54.50;;;;;;5131355;27;20108;-68
2023/08/26 12:24:40;;;;;;;3.90;2.25;;;31.60;54.50;;;;;;5128625;27;20023;-67
2023/08/26 12:27:10;;;;;;;3.88;2.30;;;31.60;54.50;;;;;;5135784;27;20023;-66
2023/08/26 12:29:37;;;;;;;5.88;2.25;;;31.60;54.50;;;;;;5135984;27;20037;-66
2023/08/26 12:32:04;;;;;;;3.22;2.40;;;31.70;54.40;;;;;;5120093;27;20043;-66
2023/08/26 12:34:30;;;;;;;3.60;2.60;;;31.60;54.60;;;;;;5115338;28;20080;-67
2023/08/26 12:36:56;;;;;;;3.70;2.13;;;31.60;55.50;;;;;;5115760;28;20068;-67
2023/08/26 12:39:25;;;;;;;4.65;2.40;;;31.60;55.20;;;;;;5114793;28;20028;-68
2023/08/26 12:41:54;;;;;;;5.75;2.38;;;31.40;54.20;;;;;;5115321;28;20064;-67
2023/08/26 12:44:22;;;;;;;2.83;2.47;;;31.40;54.60;;;;;;5114642;28;20023;-67